Time;durP1;ratioP1;P1;durP2;ratioP2;P2;SDS_P1;SDS_P2;PMS_P1;PMS_P2;Temp;Humidity;BMP_temperature;BMP_pressure;BME280_temperature;BME280_humidity;BME280_pressure;Samples;Min_cycle;Max_cycle;Signal;HPM_P1;HPM_P2
2021/03/22 00:00:10;;;;;;;33.17;28.42;;;5.10;82.40;;;;;;5094035;28;20223;-77
2021/03/22 00:02:37;;;;;;;35.63;29.92;;;5.10;78.90;;;;;;5094087;28;20199;-78
2021/03/22 00:05:05;;;;;;;35.25;29.27;;;5.00;77.90;;;;;;5094010;28;20211;-77
2021/03/22 00:07:31;;;;;;;36.20;32.40;;;5.00;77.90;;;;;;5093911;28;20235;-77
2021/03/22 00:09:58;;;;;;;31.50;28.08;;;5.00;78.00;;;;;;5093803;28;20215;-77
2021/03/22 00:12:24;;;;;;;33.03;29.65;;;5.00;78.50;;;;;;5093936;28;20580;-77
2021/03/22 00:14:50;;;;;;;32.30;29.00;;;4.90;78.10;;;;;;5094057;28;20282;-77
2021/03/22 00:17:17;;;;;;;31.42;28.48;;;4.90;77.90;;;;;;5093754;28;20203;-77
2021/03/22 00:19:44;;;;;;;35.17;29.23;;;5.00;78.20;;;;;;5093674;28;20643;-77
2021/03/22 00:22:11;;;;;;;32.95;28.95;;;5.00;77.90;;;;;;5093555;28;20191;-77
2021/03/22 00:24:37;;;;;;;36.45;28.20;;;5.00;77.70;;;;;;5093748;28;20228;-77
2021/03/22 00:27:04;;;;;;;32.33;27.55;;;5.10;77.30;;;;;;5093263;28;20574;-77
2021/03/22 00:29:30;;;;;;;32.58;29.30;;;5.10;77.60;;;;;;5093429;28;20250;-77
2021/03/22 00:31:57;;;;;;;33.10;27.80;;;5.10;77.90;;;;;;5093395;28;20286;-77
2021/03/22 00:34:23;;;;;;;33.85;29.35;;;5.20;78.00;;;;;;5093441;28;20719;-77
2021/03/22 00:36:50;;;;;;;29.25;26.38;;;5.20;77.40;;;;;;5093192;28;20203;-77
2021/03/22 00:39:17;;;;;;;30.23;27.27;;;5.20;80.50;;;;;;5093137;28;20585;-77
2021/03/22 00:41:43;;;;;;;37.13;27.75;;;5.10;79.00;;;;;;5093260;28;20192;-77
2021/03/22 00:44:09;;;;;;;30.88;27.67;;;5.10;78.50;;;;;;5093453;28;20217;-77
2021/03/22 00:46:36;;;;;;;31.75;27.15;;;5.20;77.40;;;;;;5093237;28;20731;-77
2021/03/22 00:49:02;;;;;;;37.30;27.20;;;5.20;78.70;;;;;;5093398;28;20288;-77
2021/03/22 00:51:28;;;;;;;38.50;29.92;;;5.30;79.30;;;;;;5093423;28;20192;-77
2021/03/22 00:53:56;;;;;;;31.30;28.38;;;5.30;77.70;;;;;;5093116;28;20223;-76
2021/03/22 00:56:22;;;;;;;33.28;28.45;;;5.30;77.70;;;;;;5093011;28;21319;-77
2021/03/22 00:58:48;;;;;;;32.83;27.52;;;5.30;77.00;;;;;;5092916;28;20219;-77
2021/03/22 01:01:15;;;;;;;31.45;28.10;;;5.30;77.20;;;;;;5092435;28;20203;-77
2021/03/22 01:03:41;;;;;;;29.55;26.92;;;5.30;76.90;;;;;;5093209;28;20187;-77
2021/03/22 01:06:09;;;;;;;32.45;27.58;;;5.10;77.50;;;;;;5093130;28;20238;-77
2021/03/22 01:08:38;;;;;;;30.77;27.77;;;5.20;77.80;;;;;;5093073;28;20211;-76
2021/03/22 01:11:08;;;;;;;32.10;26.45;;;5.20;77.70;;;;;;5093161;28;20195;-77
2021/03/22 01:13:36;;;;;;;28.70;25.98;;;5.20;77.90;;;;;;5092935;28;20275;-77
2021/03/22 01:16:05;;;;;;;34.60;28.48;;;5.20;79.30;;;;;;5093039;28;20554;-77
2021/03/22 01:18:33;;;;;;;30.02;27.27;;;5.20;78.10;;;;;;5092943;28;20357;-77
2021/03/22 01:21:06;;;;;;;28.52;26.05;;;5.30;77.50;;;;;;5093427;28;20286;-78
2021/03/22 01:23:32;;;;;;;29.95;26.20;;;5.30;77.00;;;;;;5093041;28;20282;-78
2021/03/22 01:25:59;;;;;;;30.52;27.30;;;5.40;76.60;;;;;;5095556;28;20195;-78
2021/03/22 01:28:26;;;;;;;31.38;27.80;;;5.30;76.80;;;;;;5093741;28;20223;-77
2021/03/22 01:30:58;;;;;;;32.13;28.40;;;5.30;76.70;;;;;;5093031;28;20191;-78
2021/03/22 01:33:27;;;;;;;28.80;25.77;;;5.40;76.50;;;;;;5092779;28;20211;-78
2021/03/22 01:35:57;;;;;;;40.13;27.60;;;5.30;77.20;;;;;;5093015;28;20253;-78
2021/03/22 01:38:24;;;;;;;30.00;27.05;;;5.40;76.70;;;;;;5093121;28;20268;-78
2021/03/22 01:41:12;;;;;;;32.42;25.85;;;5.40;76.20;;;;;;5093035;28;20283;-77
2021/03/22 01:43:55;;;;;;;37.97;26.02;;;5.40;76.10;;;;;;5092536;28;20557;-78
2021/03/22 01:46:22;;;;;;;32.13;25.27;;;5.30;76.20;;;;;;5092729;28;20241;-78
2021/03/22 01:48:49;;;;;;;28.33;25.42;;;5.10;76.80;;;;;;5092723;28;20309;-78
2021/03/22 01:51:16;;;;;;;27.92;24.98;;;5.10;77.00;;;;;;5092705;28;20197;-78
2021/03/22 01:53:43;;;;;;;28.90;26.10;;;5.10;77.00;;;;;;5092295;28;20222;-78
2021/03/22 01:56:20;;;;;;;34.50;26.58;;;5.00;77.30;;;;;;5092696;28;20205;-78
2021/03/22 01:58:47;;;;;;;27.63;24.85;;;5.00;77.30;;;;;;5092634;28;20219;-78
2021/03/22 02:01:13;;;;;;;33.65;26.77;;;5.10;76.90;;;;;;5092853;28;20195;-78
2021/03/22 02:03:41;;;;;;;29.60;26.50;;;5.20;76.70;;;;;;5092711;28;20195;-78
2021/03/22 02:06:07;;;;;;;29.30;26.25;;;5.30;76.50;;;;;;5092413;28;20246;-77
2021/03/22 02:08:37;;;;;;;27.95;24.52;;;5.20;77.10;;;;;;5092309;28;20192;-79
2021/03/22 02:11:04;;;;;;;34.58;27.10;;;5.20;76.90;;;;;;5092733;28;20194;-78
2021/03/22 02:13:33;;;;;;;31.67;25.65;;;5.00;77.30;;;;;;5095135;28;20218;-77
2021/03/22 02:16:07;;;;;;;28.42;25.38;;;5.00;77.30;;;;;;5096080;28;20195;-77
2021/03/22 02:18:39;;;;;;;28.75;25.58;;;5.00;77.20;;;;;;5096117;28;20190;-77
2021/03/22 02:21:41;;;;;;;29.83;26.00;;;5.00;77.40;;;;;;5095968;28;20199;-77
2021/03/22 02:25:13;;;;;;;29.15;26.02;;;5.00;77.50;;;;;;5096068;28;20188;-77
2021/03/22 02:28:18;;;;;;;30.02;26.98;;;5.00;77.60;;;;;;5033506;28;20204;-77
2021/03/22 02:31:26;;;;;;;29.65;25.45;;;5.00;77.80;;;;;;5009629;28;20217;-78
2021/03/22 02:34:11;;;;;;;29.00;26.15;;;5.00;77.40;;;;;;5073785;28;20225;-77
2021/03/22 02:36:49;;;;;;;28.73;25.23;;;5.00;77.60;;;;;;5095539;28;20656;-77
2021/03/22 02:39:16;;;;;;;31.98;24.98;;;4.90;77.40;;;;;;5095717;28;20222;-78
2021/03/22 02:41:46;;;;;;;27.67;24.90;;;4.80;77.90;;;;;;5095891;28;20195;-78
2021/03/22 02:44:22;;;;;;;36.30;25.40;;;4.80;78.10;;;;;;5095540;28;20233;-77
2021/03/22 02:46:54;;;;;;;29.38;26.30;;;4.90;77.50;;;;;;5095486;28;20610;-78
2021/03/22 02:49:23;;;;;;;28.13;24.90;;;4.90;77.50;;;;;;5095678;28;20225;-77
2021/03/22 02:52:06;;;;;;;28.40;23.70;;;4.80;77.70;;;;;;5095718;28;20287;-78
2021/03/22 02:54:42;;;;;;;27.25;24.70;;;4.90;77.60;;;;;;5095185;28;20190;-77
2021/03/22 02:57:15;;;;;;;29.50;26.20;;;4.80;77.30;;;;;;5095479;28;20259;-78
2021/03/22 02:59:49;;;;;;;38.00;26.48;;;4.80;77.40;;;;;;5095431;28;20233;-78
2021/03/22 03:02:18;;;;;;;29.58;25.20;;;4.80;76.90;;;;;;5095409;28;20326;-78
2021/03/22 03:04:45;;;;;;;28.02;24.40;;;4.70;77.50;;;;;;5095512;28;20199;-77
2021/03/22 03:07:19;;;;;;;27.27;24.50;;;4.70;77.60;;;;;;5095217;28;20191;-78
2021/03/22 03:09:46;;;;;;;29.40;25.02;;;4.70;77.60;;;;;;5095585;28;20306;-78
2021/03/22 03:12:14;;;;;;;31.08;24.15;;;4.70;77.90;;;;;;5095144;28;20195;-78
2021/03/22 03:14:42;;;;;;;29.05;23.98;;;4.80;77.20;;;;;;5095438;28;20195;-78
2021/03/22 03:17:09;;;;;;;26.80;24.20;;;4.80;77.00;;;;;;5095578;28;20282;-78
2021/03/22 03:19:36;;;;;;;31.98;24.98;;;4.80;77.00;;;;;;5098661;28;20309;-78
2021/03/22 03:22:04;;;;;;;28.42;24.35;;;5.00;76.40;;;;;;5095830;28;20203;-77
2021/03/22 03:24:30;;;;;;;28.02;25.10;;;4.80;76.40;;;;;;5094746;28;20265;-78
2021/03/22 03:26:57;;;;;;;26.77;24.17;;;4.80;76.70;;;;;;5094902;28;20226;-77
2021/03/22 03:29:23;;;;;;;29.90;26.90;;;4.70;76.10;;;;;;5095004;28;20302;-77
2021/03/22 03:31:50;;;;;;;29.92;24.17;;;4.80;76.60;;;;;;5094895;28;20294;-77
2021/03/22 03:34:16;;;;;;;28.20;24.77;;;4.90;76.00;;;;;;5094799;28;20215;-77
2021/03/22 03:36:43;;;;;;;32.25;24.30;;;4.80;76.10;;;;;;5094545;28;20192;-77
2021/03/22 03:39:11;;;;;;;31.63;25.92;;;4.90;75.50;;;;;;5095024;28;20710;-77
2021/03/22 03:41:39;;;;;;;26.05;23.42;;;4.80;75.40;;;;;;5094893;28;20206;-78
2021/03/22 03:44:07;;;;;;;31.98;25.95;;;4.70;75.80;;;;;;5094928;28;20307;-77
2021/03/22 03:46:34;;;;;;;28.95;26.15;;;4.70;75.80;;;;;;5094378;28;20278;-77
2021/03/22 03:49:00;;;;;;;35.22;26.30;;;4.70;76.20;;;;;;5094642;28;20260;-77
2021/03/22 03:51:27;;;;;;;27.85;24.92;;;4.80;77.40;;;;;;5095066;28;20248;-77
2021/03/22 03:53:54;;;;;;;30.10;25.75;;;4.80;76.20;;;;;;5094105;28;20219;-77
2021/03/22 03:56:21;;;;;;;28.13;24.98;;;4.80;75.90;;;;;;5094140;28;20291;-77
2021/03/22 03:58:47;;;;;;;31.63;24.50;;;4.80;75.90;;;;;;5094109;28;20212;-77
2021/03/22 04:01:14;;;;;;;28.65;25.83;;;4.70;76.20;;;;;;5094321;28;20196;-77
2021/03/22 04:03:41;;;;;;;27.70;25.23;;;4.70;76.30;;;;;;5094362;28;20188;-77
2021/03/22 04:06:10;;;;;;;30.65;26.45;;;4.80;76.20;;;;;;5094206;28;20794;-77
2021/03/22 04:08:39;;;;;;;34.70;25.42;;;4.70;76.40;;;;;;5094077;28;20211;-77
2021/03/22 04:11:08;;;;;;;31.35;28.60;;;4.70;76.50;;;;;;5094154;28;20296;-77
2021/03/22 04:13:36;;;;;;;30.23;24.50;;;4.60;76.70;;;;;;5094053;28;20306;-78
2021/03/22 04:16:04;;;;;;;28.10;25.15;;;4.60;76.70;;;;;;5093746;28;20282;-77
2021/03/22 04:18:31;;;;;;;36.45;27.17;;;4.40;77.20;;;;;;5093629;28;20278;-77
2021/03/22 04:20:57;;;;;;;31.67;24.90;;;4.50;77.70;;;;;;5093739;28;20656;-77
2021/03/22 04:23:23;;;;;;;31.25;28.00;;;4.60;76.80;;;;;;5093976;28;20273;-77
2021/03/22 04:25:50;;;;;;;27.90;25.25;;;4.60;76.40;;;;;;5093566;28;20206;-77
2021/03/22 04:28:16;;;;;;;33.90;28.58;;;4.60;76.30;;;;;;5093720;28;20196;-78
2021/03/22 04:30:43;;;;;;;30.90;27.10;;;4.60;76.20;;;;;;5093479;28;20227;-77
2021/03/22 04:33:10;;;;;;;30.52;25.83;;;4.50;75.50;;;;;;5093434;28;20321;-77
2021/03/22 04:35:36;;;;;;;33.25;26.27;;;4.50;74.90;;;;;;5093259;28;20283;-77
2021/03/22 04:38:03;;;;;;;26.65;24.20;;;4.60;75.20;;;;;;5093645;28;20203;-77
2021/03/22 04:40:30;;;;;;;31.10;25.48;;;4.50;75.30;;;;;;5093432;28;20222;-77
2021/03/22 04:42:56;;;;;;;27.48;24.88;;;4.60;75.60;;;;;;5093306;28;20195;-77
2021/03/22 04:45:26;;;;;;;28.88;24.40;;;4.60;76.20;;;;;;5093415;28;20203;-78
2021/03/22 04:47:53;;;;;;;29.02;23.85;;;4.50;76.30;;;;;;5093662;28;20635;-78
2021/03/22 04:50:21;;;;;;;27.83;24.80;;;4.50;77.00;;;;;;5093359;28;20226;-77
2021/03/22 04:52:48;;;;;;;28.00;25.25;;;4.60;76.70;;;;;;5093399;28;20325;-78
2021/03/22 04:55:16;;;;;;;32.78;30.08;;;4.60;76.80;;;;;;5093116;28;20279;-78
2021/03/22 04:57:42;;;;;;;28.15;25.25;;;4.70;76.60;;;;;;5093246;28;20709;-77
2021/03/22 05:00:12;;;;;;;31.92;25.25;;;4.60;76.30;;;;;;5093569;28;20314;-77
2021/03/22 05:02:38;;;;;;;30.45;25.17;;;4.70;76.70;;;;;;5093508;28;20282;-78
2021/03/22 05:05:07;;;;;;;29.17;23.70;;;4.60;76.40;;;;;;5093534;28;20542;-78
2021/03/22 05:07:34;;;;;;;25.92;23.38;;;4.60;75.80;;;;;;5094572;28;20282;-77
2021/03/22 05:10:00;;;;;;;26.30;23.95;;;4.50;76.40;;;;;;5093879;28;20221;-77
2021/03/22 05:12:27;;;;;;;28.23;25.73;;;4.60;75.50;;;;;;5094182;28;20607;-77
2021/03/22 05:14:53;;;;;;;26.80;24.20;;;4.60;75.20;;;;;;5095208;28;20226;-77
2021/03/22 05:17:19;;;;;;;29.25;26.30;;;4.60;74.40;;;;;;5093511;28;20216;-77
2021/03/22 05:19:46;;;;;;;26.80;23.85;;;4.50;74.10;;;;;;5094583;28;20229;-77
2021/03/22 05:22:13;;;;;;;27.27;24.85;;;4.60;74.40;;;;;;5094100;28;20286;-77
2021/03/22 05:24:39;;;;;;;27.17;24.40;;;4.50;74.10;;;;;;5094154;28;20201;-77
2021/03/22 05:27:07;;;;;;;26.80;24.27;;;4.50;74.60;;;;;;5093924;28;20282;-77
2021/03/22 05:29:33;;;;;;;27.70;24.80;;;4.60;73.80;;;;;;5094486;28;20584;-77
2021/03/22 05:32:00;;;;;;;28.13;25.30;;;4.60;73.40;;;;;;5094171;28;20206;-77
2021/03/22 05:34:26;;;;;;;27.08;24.73;;;4.60;73.30;;;;;;5093782;28;20795;-77
2021/03/22 05:36:53;;;;;;;26.65;24.27;;;4.50;73.40;;;;;;5093735;28;20195;-77
2021/03/22 05:39:21;;;;;;;28.50;24.65;;;4.40;73.60;;;;;;5094184;28;20219;-77
2021/03/22 05:42:00;;;;;;;25.30;23.30;;;4.50;73.40;;;;;;5094056;28;20286;-77
2021/03/22 05:44:51;;;;;;;27.52;24.70;;;4.50;73.90;;;;;;5094075;28;20195;-77
2021/03/22 05:47:22;;;;;;;27.70;24.50;;;4.50;73.40;;;;;;5091344;28;20199;-77
2021/03/22 05:50:09;;;;;;;27.15;24.38;;;4.50;72.90;;;;;;5096860;28;20310;-77
2021/03/22 05:52:58;;;;;;;25.65;23.48;;;4.40;71.70;;;;;;5096813;28;20267;-77
2021/03/22 05:55:46;;;;;;;26.27;24.17;;;4.50;72.40;;;;;;5096798;28;20264;-78
2021/03/22 05:58:29;;;;;;;25.90;23.23;;;4.60;72.60;;;;;;5097514;28;20218;-77
2021/03/22 06:01:02;;;;;;;29.80;24.23;;;4.50;73.30;;;;;;5097179;28;20207;-78
2021/03/22 06:03:35;;;;;;;35.63;25.90;;;4.40;73.80;;;;;;5096884;28;20195;-78
2021/03/22 06:06:09;;;;;;;27.10;23.90;;;4.50;73.70;;;;;;5096727;28;20206;-77
2021/03/22 06:08:48;;;;;;;28.27;23.70;;;4.60;73.80;;;;;;5096601;28;20277;-78
2021/03/22 06:11:27;;;;;;;29.90;26.90;;;4.70;73.70;;;;;;5096531;28;20234;-77
2021/03/22 06:13:59;;;;;;;28.13;24.83;;;4.70;74.30;;;;;;5096303;28;20699;-77
2021/03/22 06:16:31;;;;;;;27.98;25.02;;;4.60;75.30;;;;;;5096170;28;20202;-77
2021/03/22 06:19:02;;;;;;;29.83;25.60;;;4.60;75.80;;;;;;5096101;28;20756;-77
2021/03/22 06:21:31;;;;;;;27.23;24.48;;;4.40;76.70;;;;;;5095972;28;20656;-77
2021/03/22 06:23:58;;;;;;;29.95;26.33;;;4.50;76.80;;;;;;5095984;28;20596;-78
2021/03/22 06:26:36;;;;;;;27.60;24.80;;;4.40;77.30;;;;;;5096036;28;20191;-77
2021/03/22 06:29:07;;;;;;;28.20;25.52;;;4.30;77.90;;;;;;5095922;28;20218;-78
2021/03/22 06:31:34;;;;;;;29.85;24.35;;;4.40;78.00;;;;;;5096290;28;20280;-77
2021/03/22 06:34:03;;;;;;;26.17;23.98;;;4.50;77.40;;;;;;5096698;28;20222;-77
2021/03/22 06:36:29;;;;;;;28.20;24.80;;;4.40;77.40;;;;;;5096326;28;20227;-77
2021/03/22 06:38:58;;;;;;;38.80;24.88;;;4.50;77.40;;;;;;5095707;28;20258;-77
2021/03/22 06:41:44;;;;;;;29.80;26.77;;;4.50;77.60;;;;;;5095753;28;20227;-77
2021/03/22 06:44:13;;;;;;;29.90;27.08;;;4.60;77.50;;;;;;5095893;28;20256;-77
2021/03/22 06:46:57;;;;;;;27.48;24.85;;;4.70;77.30;;;;;;5095472;28;20202;-77
2021/03/22 06:49:27;;;;;;;37.25;24.00;;;4.50;77.90;;;;;;5095575;28;20217;-77
2021/03/22 06:51:58;;;;;;;26.83;23.88;;;4.50;77.80;;;;;;5095593;28;20195;-77
2021/03/22 06:54:31;;;;;;;28.92;25.35;;;4.60;76.90;;;;;;5095446;28;20215;-77
2021/03/22 06:57:05;;;;;;;30.00;26.55;;;4.70;76.90;;;;;;5095404;28;20203;-77
2021/03/22 06:59:32;;;;;;;28.58;24.95;;;4.70;76.60;;;;;;5093704;28;20219;-77
2021/03/22 07:02:14;;;;;;;27.38;24.58;;;4.60;76.80;;;;;;5095832;28;20198;-77
2021/03/22 07:04:40;;;;;;;27.83;25.30;;;4.70;76.80;;;;;;5096112;28;20195;-77
2021/03/22 07:07:10;;;;;;;27.88;24.52;;;4.70;76.40;;;;;;5096059;28;20192;-77
2021/03/22 07:09:44;;;;;;;29.58;26.75;;;4.60;76.70;;;;;;5095340;28;20231;-77
2021/03/22 07:12:32;;;;;;;27.58;24.60;;;4.70;76.60;;;;;;5095204;28;20199;-77
2021/03/22 07:15:22;;;;;;;29.05;26.08;;;4.80;78.50;;;;;;5095108;28;20240;-77
2021/03/22 07:18:10;;;;;;;27.27;24.65;;;4.80;76.90;;;;;;5094982;28;20195;-77
2021/03/22 07:20:37;;;;;;;27.10;24.45;;;4.70;76.50;;;;;;5094874;28;20215;-77
2021/03/22 07:23:52;;;;;;;27.75;25.13;;;4.80;77.00;;;;;;5094778;28;20278;-77
2021/03/22 07:26:28;;;;;;;27.30;24.58;;;4.80;76.40;;;;;;5032514;28;20247;-77
2021/03/22 07:29:07;;;;;;;27.35;24.63;;;4.40;77.30;;;;;;5092626;28;20241;-77
2021/03/22 07:31:44;;;;;;;31.55;27.00;;;4.60;77.50;;;;;;5095100;28;20191;-77
2021/03/22 07:34:30;;;;;;;29.27;25.00;;;4.80;76.80;;;;;;5095012;28;20699;-77
2021/03/22 07:37:05;;;;;;;30.23;27.35;;;5.00;74.90;;;;;;5094589;28;20199;-77
2021/03/22 07:39:37;;;;;;;28.83;26.10;;;5.00;74.60;;;;;;5094670;28;20606;-77
2021/03/22 07:42:39;;;;;;;28.67;25.65;;;5.00;75.00;;;;;;5094676;28;20260;-78
2021/03/22 07:45:36;;;;;;;28.40;25.38;;;5.10;74.80;;;;;;5094420;28;20571;-77
2021/03/22 07:48:26;;;;;;;26.73;24.33;;;5.10;74.20;;;;;;5094829;28;20203;-77
2021/03/22 07:50:57;;;;;;;27.25;24.83;;;5.00;74.40;;;;;;5094718;28;20553;-77
2021/03/22 07:53:31;;;;;;;28.92;26.40;;;5.00;74.80;;;;;;5094195;28;20215;-77
2021/03/22 07:56:04;;;;;;;28.35;24.38;;;5.10;73.90;;;;;;5094572;28;20601;-77
2021/03/22 07:58:49;;;;;;;25.77;23.73;;;5.10;74.30;;;;;;5095201;28;20201;-77
2021/03/22 08:01:24;;;;;;;27.75;25.00;;;5.10;74.10;;;;;;5094811;28;20210;-77
2021/03/22 08:04:16;;;;;;;27.13;24.75;;;5.30;73.00;;;;;;5094423;28;20591;-77
2021/03/22 08:06:57;;;;;;;27.60;25.35;;;5.20;72.30;;;;;;5094093;28;20256;-76
2021/03/22 08:09:36;;;;;;;25.17;23.10;;;5.30;72.30;;;;;;5094102;28;20211;-77
2021/03/22 08:12:10;;;;;;;24.83;22.70;;;5.40;71.40;;;;;;5093943;28;20199;-77
2021/03/22 08:14:38;;;;;;;26.05;23.70;;;5.50;71.30;;;;;;5094033;28;20222;-78
2021/03/22 08:17:28;;;;;;;25.52;23.20;;;5.60;70.60;;;;;;5094078;28;20207;-77
2021/03/22 08:20:01;;;;;;;27.02;24.75;;;5.40;71.10;;;;;;5093744;28;20592;-77
2021/03/22 08:22:34;;;;;;;26.90;24.35;;;5.60;71.40;;;;;;5093654;28;20211;-78
2021/03/22 08:25:34;;;;;;;28.48;26.08;;;5.70;70.40;;;;;;5093761;28;20253;-78
2021/03/22 08:28:18;;;;;;;28.65;25.65;;;5.60;69.90;;;;;;5077877;28;20203;-78
2021/03/22 08:30:53;;;;;;;25.63;23.23;;;5.50;70.10;;;;;;5093591;28;20227;-77
2021/03/22 08:33:27;;;;;;;27.98;25.73;;;5.50;70.60;;;;;;5093382;28;20233;-77
2021/03/22 08:36:00;;;;;;;27.75;25.17;;;5.60;70.90;;;;;;5093336;28;20759;-77
2021/03/22 08:38:46;;;;;;;28.70;25.83;;;5.80;69.90;;;;;;5093623;28;20250;-78
2021/03/22 08:41:30;;;;;;;25.02;23.08;;;5.90;69.20;;;;;;5093581;28;20238;-78
2021/03/22 08:44:03;;;;;;;28.55;24.70;;;6.00;69.20;;;;;;5093442;28;20204;-78
2021/03/22 08:46:37;;;;;;;29.60;25.83;;;6.10;69.30;;;;;;5093558;28;20195;-77
2021/03/22 08:49:19;;;;;;;27.60;25.35;;;6.00;68.70;;;;;;5093760;28;20226;-77
2021/03/22 08:51:46;;;;;;;28.05;25.33;;;5.90;69.50;;;;;;5093338;28;20230;-77
2021/03/22 08:54:22;;;;;;;28.98;26.88;;;6.10;69.80;;;;;;5093384;28;20218;-77
2021/03/22 08:57:00;;;;;;;26.42;24.10;;;6.30;68.90;;;;;;5094683;28;20251;-77
2021/03/22 08:59:26;;;;;;;25.33;23.55;;;6.50;67.90;;;;;;5093039;28;20215;-77
2021/03/22 09:02:16;;;;;;;28.45;26.13;;;6.30;68.40;;;;;;5093185;28;20219;-77
2021/03/22 09:04:43;;;;;;;27.95;25.92;;;6.20;68.80;;;;;;5092989;28;20657;-77
2021/03/22 09:07:30;;;;;;;25.05;23.25;;;6.10;68.90;;;;;;5092853;28;20239;-77
2021/03/22 09:10:34;;;;;;;25.52;23.38;;;6.00;69.00;;;;;;5092843;28;20222;-77
2021/03/22 09:13:29;;;;;;;27.08;24.38;;;5.80;69.60;;;;;;5092999;28;20647;-78
2021/03/22 09:16:28;;;;;;;31.35;29.08;;;5.80;70.20;;;;;;5092802;28;20233;-77
2021/03/22 09:19:26;;;;;;;26.65;24.25;;;5.80;70.10;;;;;;5090085;28;20215;-78
2021/03/22 09:22:33;;;;;;;26.95;24.70;;;5.80;69.60;;;;;;5092090;28;20191;-77
2021/03/22 09:25:00;;;;;;;25.58;23.00;;;5.80;69.80;;;;;;5092768;28;20752;-77
2021/03/22 09:27:31;;;;;;;25.75;23.63;;;5.80;70.40;;;;;;5092598;28;20274;-77
2021/03/22 09:30:34;;;;;;;23.92;22.23;;;5.80;70.20;;;;;;5092778;28;20696;-77
2021/03/22 09:33:01;;;;;;;26.33;24.15;;;5.90;69.90;;;;;;5092416;28;20222;-77
2021/03/22 09:35:44;;;;;;;25.92;23.83;;;6.00;70.00;;;;;;5092538;28;20195;-80
2021/03/22 09:38:33;;;;;;;27.42;24.92;;;5.80;70.40;;;;;;5091848;28;20205;-77
2021/03/22 09:41:00;;;;;;;27.20;24.90;;;5.80;71.00;;;;;;5092836;28;20320;-77
2021/03/22 09:43:37;;;;;;;30.00;27.20;;;5.80;71.00;;;;;;5092304;28;20614;-77
2021/03/22 09:46:27;;;;;;;28.20;26.40;;;6.00;71.00;;;;;;5092431;28;20736;-77
2021/03/22 09:49:28;;;;;;;26.55;24.30;;;6.30;70.00;;;;;;5092663;28;20708;-77
2021/03/22 09:52:15;;;;;;;25.25;23.23;;;6.60;69.00;;;;;;5092600;28;20200;-77
2021/03/22 09:54:44;;;;;;;26.42;24.35;;;6.60;69.20;;;;;;5092196;28;20348;-77
2021/03/22 09:57:40;;;;;;;28.52;25.80;;;6.70;69.00;;;;;;5092317;28;20192;-77
2021/03/22 10:00:26;;;;;;;27.27;25.35;;;6.90;67.30;;;;;;5092438;28;20619;-77
2021/03/22 10:02:55;;;;;;;25.90;24.00;;;6.70;66.90;;;;;;5092512;28;20200;-77
2021/03/22 10:05:24;;;;;;;26.45;24.10;;;7.00;67.20;;;;;;5092720;28;20252;-77
2021/03/22 10:07:59;;;;;;;27.30;25.30;;;7.40;66.20;;;;;;5092412;28;20196;-77
2021/03/22 10:10:32;;;;;;;26.00;24.05;;;7.50;65.60;;;;;;5092483;28;20225;-77
2021/03/22 10:13:06;;;;;;;26.63;24.25;;;7.70;65.30;;;;;;5092320;28;20199;-77
2021/03/22 10:15:38;;;;;;;27.08;24.88;;;7.70;65.80;;;;;;5092326;28;20555;-76
2021/03/22 10:18:15;;;;;;;28.05;25.50;;;7.60;64.20;;;;;;5092452;28;20203;-77
2021/03/22 10:20:43;;;;;;;29.48;27.08;;;7.60;63.70;;;;;;5092306;28;20215;-77
2021/03/22 10:23:23;;;;;;;26.85;24.50;;;7.50;63.90;;;;;;5092283;28;20196;-77
2021/03/22 10:25:52;;;;;;;28.95;24.52;;;7.50;65.60;;;;;;5092421;28;20203;-77
2021/03/22 10:28:21;;;;;;;25.63;23.48;;;7.60;64.50;;;;;;5092141;28;20551;-77
2021/03/22 10:30:57;;;;;;;26.02;24.13;;;7.30;65.10;;;;;;5092178;28;20217;-77
2021/03/22 10:33:24;;;;;;;26.23;24.08;;;6.90;66.50;;;;;;5093265;28;20262;-77
2021/03/22 10:35:54;;;;;;;27.80;25.50;;;6.70;67.10;;;;;;5095688;28;20213;-77
2021/03/22 10:38:23;;;;;;;25.80;23.77;;;6.70;67.50;;;;;;5096110;28;20195;-77
2021/03/22 10:40:51;;;;;;;24.52;22.73;;;6.70;68.70;;;;;;5095841;28;20725;-77
2021/03/22 10:43:29;;;;;;;26.25;24.30;;;6.70;67.50;;;;;;5095602;28;20195;-77
2021/03/22 10:45:57;;;;;;;25.90;23.58;;;6.40;68.40;;;;;;5095530;28;20243;-77
2021/03/22 10:48:30;;;;;;;26.70;24.40;;;6.60;68.40;;;;;;5095825;28;20201;-76
2021/03/22 10:51:02;;;;;;;27.25;24.90;;;6.40;69.00;;;;;;5096299;28;20289;-77
2021/03/22 10:53:29;;;;;;;26.48;24.10;;;6.40;69.50;;;;;;5095109;28;20750;-77
2021/03/22 10:55:56;;;;;;;26.05;24.15;;;6.40;69.70;;;;;;5095222;28;20287;-77
2021/03/22 10:58:26;;;;;;;26.92;24.98;;;6.40;70.00;;;;;;5095240;28;20282;-77
2021/03/22 11:00:59;;;;;;;26.38;23.90;;;6.50;69.40;;;;;;5095015;28;20205;-77
2021/03/22 11:03:26;;;;;;;25.52;23.60;;;6.50;69.30;;;;;;5095271;28;20662;-77
2021/03/22 11:05:54;;;;;;;26.98;24.83;;;6.50;69.50;;;;;;5095168;28;20223;-77
2021/03/22 11:08:25;;;;;;;25.58;23.55;;;6.50;69.20;;;;;;5095089;28;20208;-77
2021/03/22 11:11:00;;;;;;;27.65;25.08;;;6.40;69.90;;;;;;5095112;28;20203;-77
2021/03/22 11:13:29;;;;;;;26.67;24.33;;;6.40;69.70;;;;;;5095056;28;20219;-77
2021/03/22 11:15:56;;;;;;;26.90;24.90;;;6.40;69.70;;;;;;5095024;28;20200;-78
2021/03/22 11:18:24;;;;;;;26.52;24.20;;;6.30;70.30;;;;;;5094214;28;20552;-77
2021/03/22 11:20:54;;;;;;;25.52;23.70;;;6.40;70.10;;;;;;5094924;28;20202;-77
2021/03/22 11:23:26;;;;;;;24.33;22.50;;;6.60;69.50;;;;;;5095021;28;20191;-77
2021/03/22 11:25:53;;;;;;;25.92;23.95;;;6.90;70.10;;;;;;5094756;28;20203;-77
2021/03/22 11:28:29;;;;;;;25.65;23.88;;;7.00;67.60;;;;;;5094895;28;20727;-77
2021/03/22 11:31:05;;;;;;;26.98;25.13;;;7.00;67.80;;;;;;5094884;28;20199;-77
2021/03/22 11:33:37;;;;;;;23.17;21.83;;;7.10;67.50;;;;;;5094746;28;20215;-77
2021/03/22 11:36:11;;;;;;;25.75;23.98;;;7.30;65.20;;;;;;5094620;28;20194;-76
2021/03/22 11:38:49;;;;;;;23.95;22.42;;;7.20;65.40;;;;;;5094543;28;20199;-77
2021/03/22 11:41:32;;;;;;;24.63;22.80;;;7.10;65.30;;;;;;5094686;28;20199;-77
2021/03/22 11:44:19;;;;;;;24.15;22.38;;;7.00;65.30;;;;;;5094501;28;20201;-77
2021/03/22 11:46:47;;;;;;;26.50;24.52;;;7.10;65.70;;;;;;5093645;28;20286;-77
2021/03/22 11:49:32;;;;;;;25.20;23.50;;;7.20;65.40;;;;;;5094406;28;20318;-77
2021/03/22 11:52:01;;;;;;;25.20;23.30;;;7.30;65.20;;;;;;5094432;28;20244;-77
2021/03/22 11:54:27;;;;;;;25.83;23.95;;;7.30;64.30;;;;;;5094014;28;20228;-77
2021/03/22 11:57:00;;;;;;;24.83;23.27;;;7.50;64.00;;;;;;5094618;28;20209;-77
2021/03/22 11:59:27;;;;;;;26.70;24.95;;;7.40;64.10;;;;;;5093884;28;20310;-77
2021/03/22 12:02:05;;;;;;;25.05;23.25;;;7.60;64.50;;;;;;5094175;28;20195;-77
2021/03/22 12:04:33;;;;;;;26.63;24.33;;;7.70;63.80;;;;;;5094227;28;20191;-77
2021/03/22 12:07:04;;;;;;;25.60;23.55;;;7.70;64.20;;;;;;5093833;28;20250;-78
2021/03/22 12:09:32;;;;;;;25.40;23.83;;;7.50;65.10;;;;;;5093894;28;20215;-77
2021/03/22 12:12:04;;;;;;;24.40;22.60;;;7.40;65.40;;;;;;5093930;28;20277;-77
2021/03/22 12:14:31;;;;;;;26.50;24.80;;;7.50;65.50;;;;;;5093839;28;20223;-77
2021/03/22 12:17:03;;;;;;;25.77;23.80;;;7.50;65.60;;;;;;5093581;28;20199;-77
2021/03/22 12:19:35;;;;;;;27.63;26.10;;;7.50;65.20;;;;;;5094082;28;20572;-77
2021/03/22 12:22:02;;;;;;;24.90;23.10;;;7.40;65.70;;;;;;5093768;28;20234;-77
2021/03/22 12:24:28;;;;;;;25.25;23.75;;;7.40;65.70;;;;;;5093855;28;20659;-77
2021/03/22 12:26:54;;;;;;;25.65;23.80;;;7.30;66.30;;;;;;5093761;28;20628;-77
2021/03/22 12:29:21;;;;;;;27.08;25.05;;;7.30;65.50;;;;;;5093718;28;20218;-77
2021/03/22 12:31:50;;;;;;;26.10;24.30;;;7.10;66.20;;;;;;5093558;28;20541;-77
2021/03/22 12:34:19;;;;;;;25.92;24.25;;;7.00;67.40;;;;;;5093593;28;20219;-77
2021/03/22 12:36:46;;;;;;;24.23;22.60;;;6.90;66.90;;;;;;5093283;28;20573;-77
2021/03/22 12:39:21;;;;;;;26.55;24.58;;;6.80;67.40;;;;;;5093405;28;20760;-77
2021/03/22 12:41:49;;;;;;;24.85;23.20;;;6.80;67.80;;;;;;5093604;28;20202;-77
2021/03/22 12:44:16;;;;;;;24.90;23.17;;;6.80;67.30;;;;;;5093500;28;20206;-77
2021/03/22 12:46:42;;;;;;;25.40;23.40;;;6.80;67.50;;;;;;5094639;28;20297;-77
2021/03/22 12:49:13;;;;;;;27.40;25.77;;;6.70;68.00;;;;;;5093813;28;20299;-77
2021/03/22 12:51:39;;;;;;;25.90;24.05;;;6.90;67.80;;;;;;5093178;28;20657;-77
2021/03/22 12:54:06;;;;;;;25.58;23.08;;;7.10;67.10;;;;;;5093056;28;20246;-77
2021/03/22 12:56:32;;;;;;;25.63;24.02;;;7.20;66.00;;;;;;5093022;28;20199;-77
2021/03/22 12:58:59;;;;;;;25.40;23.90;;;7.00;66.40;;;;;;5092820;28;20222;-77
2021/03/22 13:01:25;;;;;;;27.70;25.63;;;6.80;66.90;;;;;;5093146;28;20560;-77
2021/03/22 13:03:52;;;;;;;25.08;23.58;;;6.70;67.20;;;;;;5093154;28;20195;-77